Route Details

Aircraft Information
Group: North America Fleet
Types: B738, B752, B762, B763
Route Data
Distance: 640nm
Duration: 2h 10m
Origin METAR: KSDF 010556Z 34006KT 10SM FEW050 OVC070 M02/M07 A3034 RMK AO2 SLP281 60000 T10221067 11022 21028 53002 $
Dest. METAR: KLAL 010655Z AUTO 00000KT 10SM CLR 16/16 A3018 RMK AO2 T01640155
Freight Data
(for Feb 1, 2023)
Load Factor:
58%
Manifested Cargo: 70,970lbs
Financial History
Total Freight: 97,839lbs
Average Load: 0lbs/flt
Fuel Used: 40,590lbs
Avg. Fuel Used: 0lbs/flt
Fuel Expense: $17,948
Avg. Fuel Expense: $0
Avg. Fuel Cost: $0/lbs
Total Gross Income: $249,489
Pilot Pay: $438
Total Expenses: $48,892
Total Revenue: $181,044
Average Revenue: $0

Capitol Logistics 481




KSDF
Muhammad Ali International Airport
Louisville, Kentucky
KLAL
Lakeland Linder Regional Airport
Lakeland, Florida

Activity Log

Date Flight Route Aircraft Duration
11/27/2022 CPX481 FEDRA5 OHAGI DCT VXV DCT KRVUR DCT LUBBR LUBBR3 B762 2h 06m
07/22/2022 CPX481 FEDRA5 OHAGI DCT VXV DCT ATL DCT KRVUR DCT LUBBR LUBBR3 B763 2h 08m